createdAt,value
2022-09-12T00:00:32.109Z,100.00
2022-09-12T00:01:34.385Z,100.00
2022-09-12T00:02:36.739Z,100.00
2022-09-12T00:03:40.083Z,100.00
2022-09-12T00:04:42.491Z,100.00
2022-09-12T00:05:47.389Z,100.00
2022-09-12T00:06:49.654Z,100.00
2022-09-12T00:07:52.017Z,100.00
2022-09-12T00:08:58.943Z,100.00
2022-09-12T00:10:01.175Z,100.00
2022-09-12T00:11:09.428Z,100.00
2022-09-12T00:12:11.656Z,100.00
2022-09-12T00:13:14.068Z,100.00
2022-09-12T00:14:18.756Z,100.00
2022-09-12T00:15:20.962Z,100.00
2022-09-12T00:16:24.977Z,100.00
2022-09-12T00:17:27.308Z,100.00
2022-09-12T00:18:29.592Z,100.00
2022-09-12T00:19:31.971Z,100.00
2022-09-12T00:20:34.307Z,100.00
2022-09-12T00:21:38.987Z,100.00
2022-09-12T00:22:44.481Z,100.00
2022-09-12T00:23:47.506Z,100.00
2022-09-12T00:24:49.721Z,100.00
2022-09-12T00:25:51.941Z,100.00
2022-09-12T00:26:54.681Z,100.00
2022-09-12T00:27:57.315Z,100.00
2022-09-12T00:29:06.888Z,100.00
2022-09-12T00:30:09.374Z,100.00
2022-09-12T00:31:14.937Z,100.00
2022-09-12T00:32:17.239Z,100.00
2022-09-12T00:33:19.596Z,100.00
2022-09-12T00:34:21.806Z,100.00
2022-09-12T00:35:24.087Z,100.00
2022-09-12T00:36:27.335Z,100.00
2022-09-12T00:37:29.567Z,100.00
2022-09-12T00:38:32.240Z,100.00
2022-09-12T00:39:34.516Z,100.00
2022-09-12T00:40:36.812Z,100.00
2022-09-12T00:41:41.704Z,100.00
2022-09-12T00:42:43.924Z,100.00
2022-09-12T00:43:48.866Z,100.00
2022-09-12T00:44:52.861Z,100.00
2022-09-12T00:45:55.335Z,100.00
2022-09-12T00:47:11.244Z,100.00
2022-09-12T00:48:24.082Z,100.00
2022-09-12T00:49:34.686Z,100.00
2022-09-12T00:50:37.124Z,100.00
2022-09-12T00:51:44.043Z,100.00
2022-09-12T00:52:51.569Z,100.00
2022-09-12T00:53:55.572Z,100.00
2022-09-12T00:55:03.850Z,100.00
2022-09-12T00:56:06.674Z,100.00
2022-09-12T00:57:11.602Z,100.00
2022-09-12T00:58:37.699Z,100.00
2022-09-12T00:59:43.073Z,100.00
2022-09-12T01:00:47.593Z,100.00
2022-09-12T01:01:51.704Z,100.00
2022-09-12T01:02:58.829Z,100.00
2022-09-12T01:04:02.513Z,100.00
2022-09-12T01:05:06.939Z,100.00
2022-09-12T01:06:18.100Z,100.00
2022-09-12T01:07:21.631Z,100.00
2022-09-12T01:08:25.980Z,100.00
2022-09-12T01:09:28.327Z,100.00
2022-09-12T01:10:33.071Z,100.00
2022-09-12T01:11:39.024Z,100.00
2022-09-12T01:12:43.557Z,100.00
2022-09-12T01:13:46.314Z,100.00
2022-09-12T01:14:48.571Z,100.00
2022-09-12T01:15:50.839Z,100.00
2022-09-12T01:16:53.146Z,100.00
2022-09-12T01:18:24.840Z,100.00
2022-09-12T01:19:35.958Z,100.00
2022-09-12T01:20:38.193Z,100.00
2022-09-12T01:22:27.810Z,100.00
2022-09-12T01:23:44.854Z,100.00
2022-09-12T01:25:25.156Z,100.00
2022-09-12T01:26:39.107Z,100.00
2022-09-12T01:27:50.025Z,100.00
2022-09-12T01:29:06.729Z,100.00
2022-09-12T01:30:25.209Z,100.00
2022-09-12T01:31:36.813Z,100.00
2022-09-12T01:32:53.159Z,100.00
2022-09-12T01:34:16.437Z,100.00
2022-09-12T01:35:27.953Z,100.00
2022-09-12T01:37:02.629Z,100.00
2022-09-12T01:38:13.839Z,100.00
2022-09-12T01:39:43.520Z,100.00
2022-09-12T01:41:09.238Z,100.00
2022-09-12T01:42:38.544Z,100.00
2022-09-12T01:44:08.744Z,100.00
2022-09-12T01:45:28.101Z,100.00
2022-09-12T01:46:49.195Z,100.00
2022-09-12T01:48:01.214Z,100.00
2022-09-12T01:49:15.731Z,100.00
2022-09-12T01:50:21.649Z,100.00
2022-09-12T01:51:35.737Z,100.00
2022-09-12T01:52:44.707Z,100.00
2022-09-12T01:53:51.970Z,100.00
2022-09-12T01:55:13.850Z,100.00
2022-09-12T01:56:22.672Z,100.00
2022-09-12T01:57:36.355Z,100.00
2022-09-12T01:58:47.605Z,100.00
2022-09-12T01:59:54.671Z,100.00
2022-09-12T02:01:27.872Z,100.00
2022-09-12T02:02:40.795Z,100.00
2022-09-12T02:03:49.064Z,100.00
2022-09-12T02:04:58.117Z,100.00
2022-09-12T02:06:06.652Z,100.00
2022-09-12T02:07:18.212Z,100.00
2022-09-12T02:08:27.004Z,100.00
2022-09-12T02:09:46.355Z,100.00
2022-09-12T02:10:56.335Z,100.00
2022-09-12T02:12:01.388Z,100.00
2022-09-12T02:13:29.589Z,100.00
2022-09-12T02:14:37.654Z,100.00
2022-09-12T02:15:49.381Z,100.00
2022-09-12T02:17:00.320Z,100.00
2022-09-12T02:18:05.777Z,100.00
2022-09-12T02:19:12.728Z,100.00
2022-09-12T02:20:44.000Z,100.00
2022-09-12T02:21:45.287Z,100.00
2022-09-12T02:22:49.653Z,100.00
2022-09-12T02:23:58.865Z,100.00
2022-09-12T02:25:02.701Z,100.00
2022-09-12T02:26:19.037Z,100.00
2022-09-12T02:27:37.721Z,100.00
2022-09-12T02:28:43.111Z,100.00
2022-09-12T02:29:45.802Z,100.00
2022-09-12T02:31:10.997Z,100.00
2022-09-12T02:32:35.842Z,100.00
2022-09-12T02:33:51.862Z,100.00
2022-09-12T02:35:09.240Z,100.00
2022-09-12T02:36:39.988Z,100.00
2022-09-12T02:38:01.745Z,100.00
2022-09-12T02:39:04.186Z,100.00
2022-09-12T02:40:08.815Z,100.00
2022-09-12T02:41:14.084Z,100.00
2022-09-12T02:42:16.388Z,100.00
2022-09-12T02:43:18.866Z,100.00
2022-09-12T02:44:21.617Z,100.00
2022-09-12T02:45:24.052Z,100.00
2022-09-12T02:46:37.206Z,100.00
2022-09-12T02:48:13.423Z,100.00
2022-09-12T02:49:17.202Z,100.00
2022-09-12T02:50:20.011Z,100.00
2022-09-12T02:51:23.760Z,100.00
2022-09-12T02:52:27.856Z,100.00
2022-09-12T02:53:30.860Z,100.00
2022-09-12T02:54:33.519Z,100.00
2022-09-12T02:55:37.957Z,100.00
2022-09-12T02:56:43.142Z,100.00
2022-09-12T02:57:45.410Z,100.00
2022-09-12T02:58:48.671Z,100.00
2022-09-12T02:59:57.153Z,100.00
2022-09-12T03:01:13.934Z,100.00
2022-09-12T03:02:36.703Z,100.00
2022-09-12T03:03:56.929Z,100.00
2022-09-12T03:05:25.142Z,100.00
2022-09-12T03:06:59.697Z,100.00
2022-09-12T03:08:33.335Z,100.00
2022-09-12T03:09:53.805Z,100.00
2022-09-12T03:11:17.882Z,100.00
2022-09-12T03:12:43.045Z,100.00
2022-09-12T03:14:07.158Z,100.00
2022-09-12T03:15:50.091Z,100.00
2022-09-12T03:17:12.638Z,100.00
2022-09-12T03:18:45.971Z,100.00
2022-09-12T03:20:03.534Z,100.00
2022-09-12T03:21:24.770Z,100.00
2022-09-12T03:22:47.102Z,100.00
2022-09-12T03:24:17.968Z,100.00
2022-09-12T03:25:28.474Z,100.00
2022-09-12T03:26:38.167Z,100.00
2022-09-12T03:27:52.907Z,100.00
2022-09-12T03:28:56.795Z,100.00
2022-09-12T03:30:00.095Z,100.00
2022-09-12T03:31:15.836Z,100.00
2022-09-12T03:32:18.321Z,100.00
2022-09-12T03:33:23.085Z,100.00
2022-09-12T03:34:27.376Z,100.00
2022-09-12T03:35:29.891Z,100.00
2022-09-12T03:36:32.349Z,100.00
2022-09-12T03:37:34.587Z,100.00
2022-09-12T03:38:36.818Z,100.00
2022-09-12T03:39:39.199Z,100.00
2022-09-12T03:40:41.844Z,100.00
2022-09-12T03:41:44.227Z,100.00
2022-09-12T03:42:46.562Z,100.00
2022-09-12T03:43:48.776Z,100.00
2022-09-12T03:44:51.007Z,100.00
2022-09-12T03:45:54.073Z,100.00
2022-09-12T03:46:56.345Z,100.00
2022-09-12T03:47:58.733Z,100.00
2022-09-12T03:49:01.079Z,100.00
2022-09-12T03:50:05.059Z,100.00
2022-09-12T03:51:09.926Z,100.00
2022-09-12T03:52:12.551Z,100.00
2022-09-12T03:53:17.206Z,100.00
2022-09-12T03:54:19.720Z,100.00
2022-09-12T03:55:22.901Z,100.00
2022-09-12T03:56:25.211Z,100.00
2022-09-12T03:57:27.532Z,100.00
2022-09-12T03:58:31.388Z,100.00
2022-09-12T03:59:33.806Z,100.00
2022-09-12T04:00:36.031Z,100.00
2022-09-12T04:01:38.368Z,100.00
2022-09-12T04:02:40.674Z,100.00
2022-09-12T04:03:44.767Z,100.00
2022-09-12T04:04:48.857Z,100.00
2022-09-12T04:05:51.418Z,100.00
2022-09-12T04:06:53.750Z,100.00
2022-09-12T04:07:56.171Z,100.00
2022-09-12T04:08:58.596Z,100.00
2022-09-12T04:10:01.022Z,100.00
2022-09-12T04:11:08.560Z,100.00
2022-09-12T04:12:11.396Z,100.00
2022-09-12T04:13:13.928Z,100.00
2022-09-12T04:14:16.290Z,100.00
2022-09-12T04:15:18.602Z,100.00
2022-09-12T04:16:21.124Z,100.00
2022-09-12T04:17:23.466Z,100.00
2022-09-12T04:18:26.967Z,100.00
2022-09-12T04:19:29.435Z,100.00
2022-09-12T04:20:31.898Z,100.00
2022-09-12T04:21:34.526Z,100.00
2022-09-12T04:22:36.841Z,100.00
2022-09-12T04:23:39.179Z,100.00
2022-09-12T04:24:41.493Z,100.00
2022-09-12T04:25:43.748Z,100.00
2022-09-12T04:26:46.136Z,100.00
2022-09-12T04:27:48.502Z,100.00
2022-09-12T04:28:54.669Z,100.00
2022-09-12T04:29:58.216Z,100.00
2022-09-12T04:31:09.326Z,100.00
2022-09-12T04:32:11.664Z,100.00
2022-09-12T04:33:14.585Z,100.00
2022-09-12T04:34:17.531Z,100.00
2022-09-12T04:35:19.830Z,100.00
2022-09-12T04:36:22.891Z,100.00
2022-09-12T04:37:25.433Z,100.00
2022-09-12T04:38:27.900Z,100.00
2022-09-12T04:39:30.377Z,100.00
2022-09-12T04:40:33.343Z,100.00
2022-09-12T04:41:38.676Z,100.00
2022-09-12T04:42:40.923Z,100.00
2022-09-12T04:43:43.776Z,100.00
2022-09-12T04:44:46.057Z,100.00
2022-09-12T04:45:48.352Z,100.00
2022-09-12T04:46:50.604Z,100.00
2022-09-12T04:47:52.928Z,100.00
2022-09-12T04:48:57.030Z,100.00
2022-09-12T04:49:59.501Z,100.00
2022-09-12T04:51:14.202Z,100.00
2022-09-12T04:52:16.636Z,100.00
2022-09-12T04:53:18.974Z,100.00
2022-09-12T04:54:21.478Z,100.00
2022-09-12T04:55:25.548Z,100.00
2022-09-12T04:56:29.106Z,100.00
2022-09-12T04:57:31.413Z,100.00
2022-09-12T04:58:35.102Z,100.00
2022-09-12T04:59:38.497Z,100.00
2022-09-12T05:00:40.776Z,100.00
2022-09-12T05:01:43.493Z,100.00
2022-09-12T05:02:46.397Z,100.00
2022-09-12T05:03:49.930Z,100.00
2022-09-12T05:04:52.626Z,100.00
2022-09-12T05:05:56.531Z,100.00
2022-09-12T05:06:59.266Z,100.00
2022-09-12T05:08:01.774Z,100.00
2022-09-12T05:09:06.044Z,100.00
2022-09-12T05:10:09.078Z,100.00
2022-09-12T05:11:24.608Z,100.00
2022-09-12T05:12:27.850Z,100.00
2022-09-12T05:13:30.184Z,100.00
2022-09-12T05:14:32.952Z,100.00
2022-09-12T05:15:35.523Z,100.00
2022-09-12T05:16:37.990Z,100.00
2022-09-12T05:17:40.366Z,100.00
2022-09-12T05:18:44.404Z,100.00
2022-09-12T05:19:48.158Z,100.00
2022-09-12T05:20:50.517Z,100.00
2022-09-12T05:21:52.774Z,100.00
2022-09-12T05:22:55.792Z,100.00
2022-09-12T05:24:00.120Z,100.00
2022-09-12T05:25:02.410Z,100.00
2022-09-12T05:26:06.509Z,100.00
2022-09-12T05:27:09.549Z,100.00
2022-09-12T05:28:11.969Z,100.00
2022-09-12T05:29:14.302Z,100.00
2022-09-12T05:30:16.707Z,100.00
2022-09-12T05:31:24.572Z,100.00
2022-09-12T05:32:30.571Z,100.00
2022-09-12T05:33:35.150Z,100.00
2022-09-12T05:34:37.870Z,100.00
2022-09-12T05:35:40.492Z,100.00
2022-09-12T05:36:42.716Z,100.00
2022-09-12T05:37:45.032Z,100.00
2022-09-12T05:38:47.760Z,100.00
2022-09-12T05:39:50.074Z,100.00
2022-09-12T05:40:52.533Z,100.00
2022-09-12T05:41:54.836Z,100.00
2022-09-12T05:42:57.595Z,100.00
2022-09-12T05:44:03.061Z,100.00
2022-09-12T05:45:05.982Z,100.00
2022-09-12T05:46:14.289Z,100.00
2022-09-12T05:47:17.404Z,100.00
2022-09-12T05:48:20.107Z,100.00
2022-09-12T05:49:24.739Z,100.00
2022-09-12T05:50:27.554Z,100.00
2022-09-12T05:51:33.607Z,100.00
2022-09-12T05:52:36.886Z,100.00
2022-09-12T05:53:41.660Z,97.18
2022-09-12T05:54:44.271Z,94.51
2022-09-12T05:55:46.800Z,93.02
2022-09-12T05:56:49.552Z,92.65
2022-09-12T05:57:51.979Z,90.40
2022-09-12T05:59:24.109Z,86.44
2022-09-12T06:00:29.360Z,85.61
2022-09-12T06:01:36.340Z,87.07
2022-09-12T06:02:39.620Z,87.16
2022-09-12T06:03:48.489Z,87.33
2022-09-12T06:04:51.345Z,88.26
2022-09-12T06:05:53.986Z,88.75
2022-09-12T06:06:57.189Z,85.51
2022-09-12T06:07:59.627Z,85.25
2022-09-12T06:09:04.004Z,84.57
2022-09-12T06:10:06.705Z,85.53
2022-09-12T06:11:11.612Z,85.25
2022-09-12T06:12:13.881Z,84.45
2022-09-12T06:13:16.143Z,85.30
2022-09-12T06:14:19.390Z,88.57
2022-09-12T06:15:21.686Z,97.72
2022-09-12T06:16:29.901Z,100.00
2022-09-12T06:17:32.560Z,100.00
2022-09-12T06:18:35.905Z,100.00
2022-09-12T06:19:38.151Z,100.00
2022-09-12T06:20:40.557Z,100.00
2022-09-12T06:21:43.086Z,100.00
2022-09-12T06:22:45.693Z,100.00
2022-09-12T06:23:48.612Z,100.00
2022-09-12T06:24:53.744Z,100.00
2022-09-12T06:25:58.439Z,100.00
2022-09-12T06:27:02.303Z,100.00
2022-09-12T06:28:04.813Z,100.00
2022-09-12T06:29:08.008Z,100.00
2022-09-12T06:30:11.222Z,100.00
2022-09-12T06:31:16.261Z,100.00
2022-09-12T06:32:18.488Z,100.00
2022-09-12T06:33:20.869Z,100.00
2022-09-12T06:34:23.156Z,100.00
2022-09-12T06:35:25.428Z,100.00
2022-09-12T06:36:31.894Z,100.00
2022-09-12T06:37:34.170Z,100.00
2022-09-12T06:38:36.793Z,100.00
2022-09-12T06:39:39.211Z,100.00
2022-09-12T06:40:46.795Z,100.00
2022-09-12T06:41:51.252Z,100.00
2022-09-12T06:42:53.563Z,100.00
2022-09-12T06:44:07.536Z,100.00
2022-09-12T06:45:11.423Z,100.00
2022-09-12T06:46:13.639Z,100.00
2022-09-12T06:47:16.042Z,100.00
2022-09-12T06:48:18.305Z,100.00
2022-09-12T06:49:20.542Z,100.00
2022-09-12T06:50:22.975Z,100.00
2022-09-12T06:51:26.242Z,100.00
2022-09-12T06:52:29.181Z,100.00
2022-09-12T06:53:39.246Z,100.00
2022-09-12T06:54:42.111Z,100.00
2022-09-12T06:55:44.268Z,100.00
2022-09-12T06:56:46.550Z,100.00
2022-09-12T06:57:48.771Z,100.00
2022-09-12T06:58:52.354Z,100.00
2022-09-12T06:59:54.595Z,100.00
2022-09-12T07:01:07.988Z,100.00
2022-09-12T07:02:10.471Z,100.00
2022-09-12T07:03:12.765Z,100.00
2022-09-12T07:04:15.071Z,100.00
2022-09-12T07:05:17.368Z,100.00
2022-09-12T07:06:21.603Z,100.00
2022-09-12T07:07:24.160Z,100.00
2022-09-12T07:08:26.534Z,100.00
2022-09-12T07:09:30.675Z,100.00
2022-09-12T07:10:32.896Z,100.00
2022-09-12T07:11:37.968Z,100.00
2022-09-12T07:12:40.229Z,100.00
2022-09-12T07:13:44.225Z,100.00
2022-09-12T07:14:46.615Z,100.00
2022-09-12T07:15:49.400Z,100.00
2022-09-12T07:16:51.736Z,100.00
2022-09-12T07:17:54.375Z,100.00
2022-09-12T07:19:01.853Z,100.00
2022-09-12T07:20:04.717Z,100.00
2022-09-12T07:21:11.363Z,100.00
2022-09-12T07:22:14.043Z,100.00
2022-09-12T07:23:16.580Z,100.00
2022-09-12T07:24:19.061Z,100.00
2022-09-12T07:25:21.469Z,100.00
2022-09-12T07:26:25.586Z,100.00
2022-09-12T07:27:28.104Z,100.00
2022-09-12T07:28:32.520Z,100.00
2022-09-12T07:29:37.617Z,100.00
2022-09-12T07:30:40.809Z,100.00
2022-09-12T07:31:43.435Z,100.00
2022-09-12T07:32:47.008Z,100.00
2022-09-12T07:33:54.403Z,100.00
2022-09-12T07:34:57.510Z,100.00
2022-09-12T07:36:05.097Z,100.00
2022-09-12T07:37:07.683Z,100.00
2022-09-12T07:38:10.159Z,100.00
2022-09-12T07:39:12.645Z,100.00
2022-09-12T07:40:15.241Z,100.00
2022-09-12T07:41:23.639Z,100.00
2022-09-12T07:42:26.292Z,100.00
2022-09-12T07:43:28.732Z,100.00
2022-09-12T07:44:31.089Z,100.00
2022-09-12T07:45:33.814Z,100.00
2022-09-12T07:46:36.526Z,100.00
2022-09-12T07:47:40.874Z,100.00
2022-09-12T07:48:44.665Z,100.00
2022-09-12T07:49:47.799Z,100.00
2022-09-12T07:50:59.843Z,100.00
2022-09-12T07:52:02.665Z,100.00
2022-09-12T07:53:06.182Z,100.00
2022-09-12T07:54:09.473Z,100.00
2022-09-12T07:55:12.123Z,100.00
2022-09-12T07:56:16.849Z,100.00
2022-09-12T07:57:19.509Z,100.00
2022-09-12T07:58:23.285Z,100.00
2022-09-12T07:59:48.870Z,100.00
2022-09-12T08:00:48.347Z,100.00
2022-09-12T08:01:51.772Z,100.00
2022-09-12T08:02:54.460Z,100.00
2022-09-12T08:03:59.869Z,100.00
2022-09-12T08:05:02.621Z,100.00
2022-09-12T08:06:09.868Z,100.00
2022-09-12T08:07:12.868Z,100.00
2022-09-12T08:08:15.376Z,100.00
2022-09-12T08:09:17.957Z,100.00
2022-09-12T08:10:20.641Z,100.00
2022-09-12T08:11:24.215Z,100.00
2022-09-12T08:12:28.610Z,100.00
2022-09-12T08:13:31.993Z,100.00
2022-09-12T08:14:34.525Z,100.00
2022-09-12T08:15:37.036Z,100.00
2022-09-12T08:16:39.639Z,100.00
2022-09-12T08:17:42.019Z,100.00
2022-09-12T08:18:44.937Z,100.00
2022-09-12T08:19:48.243Z,100.00
2022-09-12T08:20:59.836Z,100.00
2022-09-12T08:22:03.066Z,100.00
2022-09-12T08:23:05.567Z,100.00
2022-09-12T08:24:08.941Z,100.00
2022-09-12T08:25:11.809Z,100.00
2022-09-12T08:26:14.690Z,100.00
2022-09-12T08:27:17.264Z,100.00
2022-09-12T08:28:19.865Z,100.00
2022-09-12T08:29:22.448Z,100.00
2022-09-12T08:30:24.926Z,100.00
2022-09-12T08:31:28.061Z,100.00
2022-09-12T08:32:30.719Z,100.00
2022-09-12T08:33:33.789Z,100.00
2022-09-12T08:34:36.237Z,100.00
2022-09-12T08:35:38.724Z,100.00
2022-09-12T08:36:41.390Z,100.00
2022-09-12T08:37:46.433Z,100.00
2022-09-12T08:38:51.640Z,100.00
2022-09-12T08:39:54.267Z,100.00
2022-09-12T08:41:19.403Z,100.00
2022-09-12T08:42:43.944Z,100.00
2022-09-12T08:44:23.598Z,100.00
2022-09-12T08:45:33.088Z,100.00
2022-09-12T08:46:52.694Z,100.00
2022-09-12T08:47:56.442Z,100.00
2022-09-12T08:49:01.501Z,100.00
2022-09-12T08:50:15.213Z,100.00
2022-09-12T08:51:19.690Z,100.00
2022-09-12T08:52:25.795Z,100.00
2022-09-12T08:53:30.163Z,100.00
2022-09-12T08:54:33.109Z,100.00
2022-09-12T08:55:56.024Z,100.00
2022-09-12T08:57:01.653Z,100.00
2022-09-12T08:58:20.054Z,100.00
2022-09-12T08:59:22.387Z,100.00
2022-09-12T09:00:33.013Z,100.00
2022-09-12T09:01:43.212Z,100.00
2022-09-12T09:02:45.885Z,100.00
2022-09-12T09:04:01.345Z,100.00
2022-09-12T09:05:30.376Z,100.00
2022-09-12T09:07:11.307Z,100.00
2022-09-12T09:08:26.925Z,100.00
2022-09-12T09:09:43.195Z,100.00
2022-09-12T09:11:13.185Z,100.00
2022-09-12T09:12:39.376Z,100.00
2022-09-12T09:14:06.397Z,100.00
2022-09-12T09:15:35.205Z,100.00
2022-09-12T09:16:46.385Z,100.00
2022-09-12T09:17:57.749Z,100.00
2022-09-12T09:19:06.166Z,100.00
2022-09-12T09:20:17.618Z,100.00
2022-09-12T09:21:32.218Z,100.00
2022-09-12T09:22:43.319Z,100.00
2022-09-12T09:23:50.980Z,100.00
2022-09-12T09:24:58.261Z,100.00
2022-09-12T09:26:17.007Z,100.00
2022-09-12T09:27:47.455Z,100.00
2022-09-12T09:28:58.845Z,100.00
2022-09-12T09:30:02.501Z,100.00
2022-09-12T09:31:06.841Z,100.00
2022-09-12T09:32:18.846Z,100.00
2022-09-12T09:33:28.338Z,100.00
2022-09-12T09:34:34.221Z,100.00
2022-09-12T09:35:45.452Z,100.00
2022-09-12T09:37:17.855Z,100.00
2022-09-12T09:39:33.959Z,100.00
2022-09-12T09:40:42.423Z,100.00
2022-09-12T09:42:06.355Z,100.00
2022-09-12T09:43:23.024Z,100.00
2022-09-12T09:44:29.089Z,100.00
2022-09-12T09:45:31.762Z,100.00
2022-09-12T09:46:34.089Z,100.00
2022-09-12T09:47:36.504Z,100.00
2022-09-12T09:48:42.405Z,100.00
2022-09-12T09:49:45.008Z,100.00
2022-09-12T09:50:49.288Z,100.00
2022-09-12T09:51:51.891Z,100.00
2022-09-12T09:54:03.603Z,100.00
2022-09-12T09:55:12.088Z,100.00
2022-09-12T09:56:28.590Z,100.00
2022-09-12T09:57:37.071Z,100.00
2022-09-12T09:58:40.324Z,100.00
2022-09-12T09:59:42.722Z,100.00
2022-09-12T10:00:46.110Z,100.00
2022-09-12T10:01:54.647Z,100.00
2022-09-12T10:03:11.343Z,100.00
2022-09-12T10:04:26.555Z,100.00
2022-09-12T10:05:31.075Z,100.00
2022-09-12T10:06:35.457Z,100.00
2022-09-12T10:07:38.172Z,100.00
2022-09-12T10:08:41.186Z,100.00
2022-09-12T10:10:14.639Z,100.00
2022-09-12T10:11:22.895Z,100.00
2022-09-12T10:12:28.689Z,100.00
2022-09-12T10:13:36.330Z,100.00
2022-09-12T10:14:41.157Z,100.00
2022-09-12T10:15:57.837Z,100.00
2022-09-12T10:17:01.148Z,100.00
2022-09-12T10:18:04.483Z,100.00
2022-09-12T10:19:22.606Z,100.00
2022-09-12T10:20:54.761Z,100.00
2022-09-12T10:21:57.416Z,100.00
2022-09-12T10:23:02.153Z,100.00
2022-09-12T10:24:13.774Z,99.16
2022-09-12T10:25:19.255Z,100.00
2022-09-12T10:26:22.013Z,100.00
2022-09-12T10:27:31.572Z,100.00
2022-09-12T10:28:53.943Z,100.00
2022-09-12T10:30:19.090Z,100.00
2022-09-12T10:31:36.093Z,100.00
2022-09-12T10:32:42.886Z,100.00
2022-09-12T10:33:52.764Z,97.13
2022-09-12T10:35:02.465Z,98.58
2022-09-12T10:36:05.317Z,97.77
2022-09-12T10:37:17.269Z,99.19
2022-09-12T10:38:32.551Z,95.49
2022-09-12T10:39:38.516Z,97.91
2022-09-12T10:40:44.158Z,99.10
2022-09-12T10:41:47.188Z,99.24
2022-09-12T10:42:52.623Z,100.00
2022-09-12T10:44:07.951Z,100.00
2022-09-12T10:45:22.814Z,99.60
2022-09-12T10:46:29.628Z,100.00
2022-09-12T10:47:32.732Z,98.04
2022-09-12T10:48:36.298Z,99.43
2022-09-12T10:49:40.410Z,93.83
2022-09-12T10:50:43.422Z,90.98
2022-09-12T10:51:46.162Z,91.94
2022-09-12T10:52:48.834Z,95.20
2022-09-12T10:53:54.842Z,93.06
2022-09-12T10:54:58.138Z,95.49
2022-09-12T10:56:26.889Z,88.56
2022-09-12T10:57:47.995Z,87.20
2022-09-12T10:59:20.373Z,81.93
2022-09-12T11:00:27.999Z,77.57
2022-09-12T11:01:30.528Z,79.76
2022-09-12T11:02:54.975Z,86.52
2022-09-12T11:04:26.710Z,85.52
2022-09-12T11:05:58.467Z,91.06
2022-09-12T11:07:06.934Z,92.42
2022-09-12T11:08:21.185Z,91.39
2022-09-12T11:09:23.553Z,92.63
2022-09-12T11:10:51.797Z,90.52
2022-09-12T11:12:28.496Z,84.78
2022-09-12T11:13:46.432Z,80.28
2022-09-12T11:15:01.070Z,77.95
2022-09-12T11:16:19.990Z,84.16
2022-09-12T11:17:52.102Z,91.92
2022-09-12T11:19:31.427Z,85.73
2022-09-12T11:20:59.121Z,87.26
2022-09-12T11:22:15.211Z,87.01
2022-09-12T11:23:46.148Z,90.14
2022-09-12T11:25:13.134Z,89.15
2022-09-12T11:26:33.702Z,92.18
2022-09-12T11:27:57.950Z,87.78
2022-09-12T11:29:21.256Z,82.25
2022-09-12T11:30:23.867Z,83.20
2022-09-12T11:31:50.735Z,85.38
2022-09-12T11:33:01.716Z,85.87
2022-09-12T11:34:09.576Z,86.48
2022-09-12T11:35:27.649Z,85.04
2022-09-12T11:36:48.191Z,87.97
2022-09-12T11:37:56.535Z,87.68
2022-09-12T11:39:03.898Z,86.42
2022-09-12T11:40:39.103Z,85.17
2022-09-12T11:41:51.268Z,82.48
2022-09-12T11:43:02.105Z,86.69
2022-09-12T11:44:23.334Z,82.21
2022-09-12T11:45:32.782Z,80.49
2022-09-12T11:46:40.915Z,79.52
2022-09-12T11:47:49.176Z,77.82
2022-09-12T11:48:59.974Z,79.65
2022-09-12T11:50:16.021Z,78.91
2022-09-12T11:51:27.838Z,75.22
2022-09-12T11:52:37.951Z,77.22
2022-09-12T11:53:44.116Z,77.60
2022-09-12T11:55:00.975Z,72.47
2022-09-12T11:56:15.904Z,73.14
2022-09-12T11:57:29.088Z,74.28
2022-09-12T11:58:31.889Z,75.55
2022-09-12T11:59:34.567Z,80.42
2022-09-12T12:00:53.601Z,85.84
2022-09-12T12:02:00.280Z,87.74
2022-09-12T12:03:34.601Z,84.69
2022-09-12T12:04:44.708Z,85.72
2022-09-12T12:05:55.438Z,86.29
2022-09-12T12:07:05.398Z,83.80
2022-09-12T12:08:08.144Z,82.07
2022-09-12T12:09:13.328Z,80.95
2022-09-12T12:10:44.194Z,74.60
2022-09-12T12:11:57.653Z,74.68
2022-09-12T12:13:03.357Z,69.49
2022-09-12T12:14:19.924Z,73.82
2022-09-12T12:15:25.000Z,76.29
2022-09-12T12:16:31.604Z,74.87
2022-09-12T12:17:34.879Z,74.30
2022-09-12T12:18:39.032Z,75.59
2022-09-12T12:19:43.106Z,72.22
2022-09-12T12:20:45.810Z,68.74
2022-09-12T12:21:50.593Z,69.81
2022-09-12T12:22:54.550Z,68.76
2022-09-12T12:24:07.364Z,72.17
2022-09-12T12:25:12.476Z,72.77
2022-09-12T12:26:40.828Z,71.48
2022-09-12T12:27:51.506Z,69.99
2022-09-12T12:28:54.135Z,71.99
2022-09-12T12:29:57.130Z,72.15
2022-09-12T12:31:01.402Z,76.45
2022-09-12T12:32:03.724Z,76.31
2022-09-12T12:33:09.971Z,77.71
2022-09-12T12:34:28.451Z,78.12
2022-09-12T12:35:42.500Z,79.04
2022-09-12T12:36:44.936Z,77.33
2022-09-12T12:37:52.060Z,78.59
2022-09-12T12:38:55.036Z,82.05
2022-09-12T12:40:01.203Z,79.80
2022-09-12T12:41:18.571Z,77.48
2022-09-12T12:42:32.807Z,78.77
2022-09-12T12:43:37.782Z,79.19
2022-09-12T12:44:45.777Z,77.24
2022-09-12T12:45:49.663Z,77.79
2022-09-12T12:47:21.224Z,76.49
2022-09-12T12:48:24.332Z,77.98
2022-09-12T12:49:29.842Z,77.21
2022-09-12T12:50:32.640Z,77.21
2022-09-12T12:51:53.533Z,75.13
2022-09-12T12:53:03.663Z,78.29
2022-09-12T12:54:49.624Z,77.53
2022-09-12T12:55:54.584Z,75.76
2022-09-12T12:57:26.123Z,72.56
2022-09-12T12:58:40.675Z,72.93
2022-09-12T12:59:56.224Z,73.07
2022-09-12T13:01:20.817Z,71.24
2022-09-12T13:02:51.162Z,69.70
2022-09-12T13:03:59.739Z,68.01
2022-09-12T13:05:24.104Z,66.42
2022-09-12T13:06:35.096Z,65.87
2022-09-12T13:07:40.249Z,63.93
2022-09-12T13:08:55.899Z,66.04
2022-09-12T13:10:00.679Z,65.27
2022-09-12T13:11:27.075Z,65.04
2022-09-12T13:12:37.470Z,66.25
2022-09-12T13:13:50.661Z,67.08
2022-09-12T13:14:59.703Z,65.65
2022-09-12T13:16:02.492Z,64.29
2022-09-12T13:17:07.810Z,66.12
2022-09-12T13:18:18.840Z,65.89
2022-09-12T13:19:29.263Z,67.93
2022-09-12T13:20:44.757Z,64.72
2022-09-12T13:21:59.853Z,65.94
2022-09-12T13:23:02.315Z,66.55
2022-09-12T13:24:13.405Z,65.40
2022-09-12T13:25:26.883Z,64.26
2022-09-12T13:26:34.950Z,63.91
2022-09-12T13:27:37.473Z,63.75
2022-09-12T13:28:40.405Z,64.19
2022-09-12T13:29:43.479Z,65.46
2022-09-12T13:31:02.113Z,62.43
2022-09-12T13:32:06.060Z,58.83
2022-09-12T13:33:27.169Z,58.94
2022-09-12T13:34:34.070Z,59.04
2022-09-12T13:35:53.857Z,58.37
2022-09-12T13:36:56.360Z,56.83
2022-09-12T13:38:18.967Z,56.95
2022-09-12T13:39:47.709Z,55.05
2022-09-12T13:40:59.143Z,55.81
2022-09-12T13:42:19.809Z,58.79
2022-09-12T13:43:36.958Z,57.27
2022-09-12T13:45:08.857Z,54.89
2022-09-12T13:46:17.257Z,56.63
2022-09-12T13:47:32.992Z,56.61
2022-09-12T13:48:35.670Z,58.67
2022-09-12T13:49:40.792Z,59.10
2022-09-12T13:50:53.955Z,60.19
2022-09-12T13:52:21.434Z,57.06
2022-09-12T13:53:27.806Z,58.74
2022-09-12T13:54:31.169Z,58.80
2022-09-12T13:55:42.150Z,57.85
2022-09-12T13:56:49.531Z,58.59
2022-09-12T13:58:00.917Z,60.23
2022-09-12T13:59:03.257Z,61.27
2022-09-12T14:00:22.538Z,60.93
2022-09-12T14:01:39.305Z,63.05
2022-09-12T14:02:41.832Z,61.27
2022-09-12T14:04:12.201Z,60.35
2022-09-12T14:05:24.269Z,60.20
2022-09-12T14:06:27.662Z,57.65
2022-09-12T14:07:31.703Z,57.14
2022-09-12T14:08:34.695Z,56.39
2022-09-12T14:09:44.535Z,57.15
2022-09-12T14:10:50.383Z,56.19
2022-09-12T14:11:53.737Z,57.93
2022-09-12T14:12:57.197Z,57.59
2022-09-12T14:14:06.466Z,56.43
2022-09-12T14:15:24.030Z,55.97
2022-09-12T14:16:29.172Z,56.09
2022-09-12T14:17:36.730Z,53.91
2022-09-12T14:18:41.391Z,54.34
2022-09-12T14:19:44.931Z,54.21
2022-09-12T14:20:47.909Z,54.21
2022-09-12T14:21:53.315Z,53.94
2022-09-12T14:22:56.134Z,52.96
2022-09-12T14:24:00.671Z,52.39
2022-09-12T14:25:03.738Z,52.24
2022-09-12T14:26:11.490Z,52.41